Time;durP1;ratioP1;P1;durP2;ratioP2;P2;SDS_P1;SDS_P2;PMS_P1;PMS_P2;Temp;Humidity;BMP_temperature;BMP_pressure;BME280_temperature;BME280_humidity;BME280_pressure;Samples;Min_cycle;Max_cycle;Signal;HPM_P1;HPM_P2
2022/03/27 00:01:07;;;;;;;11.23;4.67;;;;;;;10.02;46.05;99902.41;5056493;28;20189;-88
2022/03/27 00:03:33;;;;;;;10.80;5.27;;;;;;;9.98;46.12;99897.34;5056405;28;20604;-89
2022/03/27 00:05:59;;;;;;;6.67;3.70;;;;;;;9.77;46.51;99902.47;5038750;28;20264;-89
2022/03/27 00:08:25;;;;;;;14.37;4.10;;;;;;;9.93;46.53;99899.31;5056252;28;20623;-88
2022/03/27 00:13:34;;;;;;;14.10;4.83;;;;;;;9.85;46.01;99896.97;5056494;28;20263;-88
2022/03/27 00:16:00;;;;;;;17.00;6.63;;;;;;;9.94;46.07;99895.75;5038573;28;20181;-88
2022/03/27 00:18:25;;;;;;;10.63;4.43;;;;;;;9.75;46.21;99885.09;5056014;28;20177;-88
2022/03/27 00:20:52;;;;;;;7.63;4.20;;;;;;;9.73;45.79;99887.78;5056278;28;20570;-88
2022/03/27 00:23:18;;;;;;;11.47;3.80;;;;;;;9.72;45.95;99883.47;5038663;28;20533;-89
2022/03/27 00:42:33;;;;;;;13.50;4.33;;;;;;;9.61;46.10;99892.63;5055548;28;20237;-88
2022/03/27 00:44:58;;;;;;;6.67;3.70;;;;;;;9.42;46.39;99887.22;5056094;28;20186;-89
2022/03/27 00:47:23;;;;;;;7.67;4.03;;;;;;;9.22;47.39;99892.31;5054988;28;20227;-88
2022/03/27 00:49:49;;;;;;;17.77;4.93;;;;;;;9.20;47.41;99887.09;5055723;28;20188;-89
2022/03/27 00:52:14;;;;;;;10.97;4.90;;;;;;;9.27;46.78;99878.16;5055307;28;20177;-88
2022/03/27 00:54:40;;;;;;;11.57;4.40;;;;;;;9.19;47.03;99885.41;5055396;28;20265;-88
2022/03/27 00:57:06;;;;;;;11.87;5.47;;;;;;;9.20;47.84;99881.88;5055307;28;20650;-88
2022/03/27 00:59:32;;;;;;;13.60;5.47;;;;;;;9.18;47.12;99880.22;5055251;28;20242;-88
2022/03/27 01:01:57;;;;;;;12.73;4.43;;;;;;;9.09;47.14;99876.16;5055282;28;20178;-88
2022/03/27 01:04:23;;;;;;;11.93;5.37;;;;;;;9.23;47.61;99873.94;5055437;28;20215;-88
2022/03/27 01:06:48;;;;;;;13.83;4.67;;;;;;;9.20;47.55;99871.41;5055173;28;20224;-88
2022/03/27 01:09:36;;;;;;;13.07;5.73;;;;;;;9.13;47.34;99877.78;5055433;28;20177;-88
2022/03/27 01:12:21;;;;;;;10.13;4.37;;;;;;;9.11;47.49;99876.97;5055645;28;20166;-88
2022/03/27 01:14:47;;;;;;;17.70;5.80;;;;;;;9.02;47.52;99879.03;5055583;28;20166;-88
2022/03/27 01:17:16;;;;;;;10.97;5.20;;;;;;;8.99;47.50;99879.16;5055245;28;20254;-88
2022/03/27 01:19:43;;;;;;;11.87;4.80;;;;;;;8.86;47.88;99876.09;5054939;28;20192;-87
2022/03/27 01:22:09;;;;;;;13.00;5.80;;;;;;;8.87;48.28;99871.72;5054666;28;20186;-88
2022/03/27 01:24:35;;;;;;;13.23;4.43;;;;;;;8.91;48.01;99871.56;5054805;28;20624;-88
2022/03/27 01:27:01;;;;;;;13.70;3.67;;;;;;;8.72;48.19;99873.13;5055076;28;20182;-88
2022/03/27 01:29:26;;;;;;;14.50;6.53;;;;;;;8.60;48.50;99873.50;5037133;28;20181;-88
2022/03/27 01:31:53;;;;;;;8.83;5.20;;;;;;;8.52;48.56;99870.28;5054958;28;20256;-87
2022/03/27 01:34:18;;;;;;;11.57;4.73;;;;;;;8.47;49.32;99864.34;5054587;28;20190;-88
2022/03/27 01:36:44;;;;;;;10.57;5.27;;;;;;;8.46;49.01;99870.50;5037323;28;20251;-88
2022/03/27 01:39:11;;;;;;;7.90;4.43;;;;;;;8.45;48.15;99864.41;5054556;28;20619;-87
2022/03/27 01:41:38;;;;;;;10.50;4.70;;;;;;;8.58;48.10;99870.09;5054355;28;20225;-88
2022/03/27 01:44:08;;;;;;;9.70;4.60;;;;;;;8.68;47.67;99868.00;5036829;28;20213;-88
2022/03/27 01:46:35;;;;;;;10.47;3.23;;;;;;;8.67;47.26;99884.63;5054977;28;20177;-88
2022/03/27 01:49:03;;;;;;;10.80;5.27;;;;;;;8.52;48.46;99871.13;5054612;28;20546;-87
2022/03/27 01:51:29;;;;;;;14.40;5.53;;;;;;;8.44;48.19;99873.16;5036697;28;20347;-88
2022/03/27 01:53:55;;;;;;;16.57;5.63;;;;;;;8.30;48.00;99870.13;5054455;28;20212;-88
2022/03/27 01:56:21;;;;;;;17.10;4.83;;;;;;;8.23;49.40;99875.56;5054221;28;20199;-88
2022/03/27 01:58:47;;;;;;;21.20;6.40;;;;;;;8.13;49.70;99866.28;5053515;28;20182;-87
2022/03/27 02:01:12;;;;;;;12.87;4.57;;;;;;;8.11;49.66;99865.50;5054200;28;20181;-87
2022/03/27 02:03:38;;;;;;;13.83;5.27;;;;;;;8.14;49.32;99868.88;5054603;28;20190;-88
2022/03/27 02:06:05;;;;;;;9.07;4.50;;;;;;;8.11;48.81;99868.09;5054059;28;20186;-88
2022/03/27 02:08:34;;;;;;;14.37;3.47;;;;;;;8.19;48.30;99866.97;5036719;28;20186;-88
2022/03/27 02:11:03;;;;;;;16.47;5.43;;;;;;;8.17;48.81;99858.34;5053912;28;20202;-87
2022/03/27 02:13:29;;;;;;;12.57;4.47;;;;;;;8.16;48.43;99860.97;5037166;28;20276;-87
2022/03/27 02:15:57;;;;;;;11.53;4.53;;;;;;;8.09;48.00;99865.53;5036348;28;20276;-88
2022/03/27 02:18:28;;;;;;;9.73;3.83;;;;;;;8.01;48.44;99868.41;5036494;28;20213;-88
2022/03/27 02:20:54;;;;;;;14.10;6.07;;;;;;;7.99;48.17;99870.19;5054298;28;20243;-87
2022/03/27 02:23:24;;;;;;;11.93;4.37;;;;;;;7.90;48.15;99870.47;5036670;28;20667;-87
2022/03/27 02:25:50;;;;;;;7.03;3.63;;;;;;;7.97;48.27;99872.00;5053670;28;20185;-87
2022/03/27 02:28:16;;;;;;;6.13;3.53;;;;;;;7.99;47.35;99869.34;5036034;28;20181;-87
2022/03/27 02:30:42;;;;;;;10.60;4.50;;;;;;;7.98;47.08;99871.09;5036345;28;20603;-87
2022/03/27 02:33:08;;;;;;;10.90;3.67;;;;;;;8.01;46.91;99873.63;5053435;28;20197;-87
2022/03/27 02:35:33;;;;;;;8.93;3.07;;;;;;;7.81;48.34;99864.66;5053787;28;20648;-87
2022/03/27 02:38:00;;;;;;;7.23;4.10;;;;;;;7.77;47.57;99874.34;5036219;28;20242;-88
2022/03/27 02:40:26;;;;;;;5.37;2.87;;;;;;;7.79;48.01;99869.94;5035814;28;20192;-87
2022/03/27 02:42:52;;;;;;;5.70;2.43;;;;;;;7.74;48.25;99874.44;5035834;28;20276;-87
2022/03/27 02:45:18;;;;;;;7.27;3.60;;;;;;;7.78;48.42;99877.81;5035749;28;20177;-87
2022/03/27 02:47:44;;;;;;;4.00;2.43;;;;;;;7.80;48.09;99878.63;5035708;28;20564;-88
2022/03/27 02:50:10;;;;;;;8.83;3.53;;;;;;;7.68;49.09;99879.81;5035962;28;20603;-87
2022/03/27 02:52:35;;;;;;;8.43;2.70;;;;;;;7.50;49.93;99882.97;5035894;28;20258;-87
2022/03/27 02:55:01;;;;;;;6.93;2.70;;;;;;;7.47;49.92;99880.44;5053196;28;20649;-88
2022/03/27 02:57:26;;;;;;;9.00;2.70;;;;;;;7.37;50.67;99881.59;5035685;28;20184;-87
2022/03/27 02:59:52;;;;;;;8.73;2.73;;;;;;;7.54;50.28;99896.78;5035650;28;20726;-88
2022/03/27 03:02:19;;;;;;;6.77;3.13;;;;;;;7.44;50.88;99885.75;5053424;28;20690;-87
2022/03/27 03:04:44;;;;;;;9.03;2.67;;;;;;;7.72;49.94;99886.69;5035560;28;20327;-88
2022/03/27 03:07:10;;;;;;;7.60;2.17;;;;;;;7.56;50.85;99884.53;5053301;28;20260;-87
2022/03/27 03:09:36;;;;;;;5.47;2.53;;;;;;;7.80;50.30;99887.31;5035810;28;20590;-88
2022/03/27 03:12:01;;;;;;;4.20;2.33;;;;;;;7.68;50.92;99886.81;5052804;28;20184;-88
2022/03/27 03:14:27;;;;;;;7.33;2.73;;;;;;;7.53;51.68;99895.91;5035587;28;20211;-87
2022/03/27 03:16:53;;;;;;;7.00;3.10;;;;;;;7.52;51.77;99890.75;5035718;28;20190;-87
2022/03/27 03:19:18;;;;;;;8.90;5.20;;;;;;;7.56;51.48;99889.75;5035339;28;20182;-88
2022/03/27 03:21:44;;;;;;;8.17;4.80;;;;;;;7.55;51.50;99888.91;5053737;28;20177;-88
2022/03/27 03:24:10;;;;;;;7.30;3.07;;;;;;;7.51;51.66;99889.03;5053458;28;20250;-87
2022/03/27 03:26:35;;;;;;;6.43;3.60;;;;;;;7.59;51.47;99895.75;5035278;28;20185;-87
2022/03/27 03:29:01;;;;;;;8.23;3.07;;;;;;;7.71;51.21;99900.59;5035277;28;20242;-87
2022/03/27 03:31:27;;;;;;;8.67;4.03;;;;;;;7.59;51.66;99902.72;5035572;28;20698;-87
2022/03/27 03:33:52;;;;;;;11.33;4.33;;;;;;;7.65;51.85;99903.38;5035177;28;20305;-87
2022/03/27 03:36:18;;;;;;;12.27;4.43;;;;;;;7.71;51.35;99902.34;5035257;28;20192;-88
2022/03/27 03:38:43;;;;;;;7.00;3.17;;;;;;;7.66;51.80;99899.03;5035229;28;20280;-87
2022/03/27 03:41:09;;;;;;;7.07;3.90;;;;;;;7.68;52.03;99900.69;5052879;28;20249;-88
2022/03/27 03:43:36;;;;;;;8.73;4.07;;;;;;;7.75;51.62;99896.16;5035150;28;20166;-88
2022/03/27 03:46:05;;;;;;;10.57;4.07;;;;;;;7.67;52.39;99903.34;5035381;28;20638;-88
2022/03/27 03:48:31;;;;;;;13.77;4.83;;;;;;;7.65;51.62;99900.78;5035178;28;20189;-87
2022/03/27 03:50:57;;;;;;;6.80;3.53;;;;;;;7.76;51.60;99892.63;5035374;28;20729;-87
2022/03/27 03:53:22;;;;;;;4.90;2.90;;;;;;;7.83;51.45;99902.88;5035008;28;20217;-87
2022/03/27 03:55:48;;;;;;;8.90;4.53;;;;;;;7.80;51.58;99899.50;5053155;28;20185;-87
2022/03/27 03:58:14;;;;;;;6.63;3.17;;;;;;;7.97;51.11;99898.09;5035391;28;20205;-88
2022/03/27 04:00:41;;;;;;;12.67;3.73;;;;;;;8.05;50.76;99905.69;5035060;28;20272;-87
2022/03/27 04:03:07;;;;;;;6.53;3.40;;;;;;;7.79;51.96;99909.06;5035292;28;20188;-88
2022/03/27 04:05:33;;;;;;;5.23;3.07;;;;;;;7.70;52.87;99909.34;5035054;28;20198;-87
2022/03/27 04:07:58;;;;;;;5.83;2.53;;;;;;;7.63;53.66;99915.63;5035537;28;20617;-87
2022/03/27 04:10:24;;;;;;;8.93;3.37;;;;;;;7.64;53.40;99924.31;5034949;28;20687;-88
2022/03/27 04:12:49;;;;;;;8.60;4.03;;;;;;;7.71;53.15;99926.72;5052728;28;20189;-88
2022/03/27 04:15:15;;;;;;;8.43;3.83;;;;;;;7.77;52.95;99921.31;5035224;28;20177;-88
2022/03/27 04:17:44;;;;;;;7.30;3.93;;;;;;;7.84;52.44;99921.97;5052704;28;20207;-88
2022/03/27 04:20:10;;;;;;;9.57;4.23;;;;;;;7.95;52.44;99919.94;5034880;28;20544;-87
2022/03/27 04:22:36;;;;;;;8.73;4.70;;;;;;;7.83;53.27;99921.16;5053631;28;20246;-87
2022/03/27 04:25:02;;;;;;;10.00;3.43;;;;;;;7.90;52.73;99922.69;5038442;28;20258;-87
2022/03/27 04:27:27;;;;;;;18.83;4.47;;;;;;;7.90;52.76;99924.44;5038942;28;20188;-88
2022/03/27 04:29:53;;;;;;;8.30;3.90;;;;;;;7.94;52.54;99926.88;5038647;28;20553;-88
2022/03/27 04:32:18;;;;;;;9.40;4.10;;;;;;;7.95;52.54;99935.59;5056063;28;20186;-87
2022/03/27 04:34:44;;;;;;;9.40;4.90;;;;;;;7.88;51.78;99942.75;5038825;28;20251;-87
2022/03/27 04:37:09;;;;;;;9.70;4.60;;;;;;;7.89;51.16;99941.84;5056304;28;20268;-88
2022/03/27 04:39:34;;;;;;;8.43;3.87;;;;;;;7.93;50.19;99945.22;5038163;28;20261;-87
2022/03/27 04:42:00;;;;;;;7.73;3.60;;;;;;;7.84;50.74;99946.34;5038212;28;20677;-88
2022/03/27 04:44:25;;;;;;;7.87;4.37;;;;;;;7.85;50.56;99947.19;5055594;28;20239;-87
2022/03/27 04:46:51;;;;;;;9.13;3.73;;;;;;;7.96;50.55;99952.97;5055545;28;20208;-88
2022/03/27 04:49:16;;;;;;;8.13;3.50;;;;;;;8.01;50.70;99948.47;5037914;28;20246;-88
2022/03/27 04:51:42;;;;;;;14.70;4.57;;;;;;;7.89;51.10;99954.88;5037919;28;20326;-88
2022/03/27 04:54:07;;;;;;;15.93;5.77;;;;;;;7.97;50.60;99959.88;5038890;28;20205;-87
2022/03/27 04:56:33;;;;;;;8.03;4.40;;;;;;;8.00;51.19;99960.66;5037824;28;20185;-88
2022/03/27 04:58:58;;;;;;;14.50;4.67;;;;;;;8.07;50.47;99956.09;5037786;28;20188;-87
2022/03/27 05:01:24;;;;;;;19.40;4.73;;;;;;;8.14;49.47;99962.88;5056085;28;20189;-88
2022/03/27 05:03:49;;;;;;;13.63;5.10;;;;;;;8.16;50.40;99965.44;5037747;28;20187;-88
2022/03/27 05:06:16;;;;;;;9.83;4.43;;;;;;;8.29;50.35;99957.22;5055168;28;20612;-88
2022/03/27 05:08:44;;;;;;;9.43;5.43;;;;;;;8.40;50.55;99954.28;5037608;28;20192;-88
2022/03/27 05:11:09;;;;;;;8.90;4.20;;;;;;;8.37;50.83;99965.69;5037565;28;20185;-87
2022/03/27 05:13:34;;;;;;;10.37;5.47;;;;;;;8.38;51.25;99956.94;5037473;28;20198;-87
2022/03/27 05:16:00;;;;;;;11.67;4.80;;;;;;;8.37;51.97;99963.06;5038604;28;20275;-88
2022/03/27 05:18:25;;;;;;;14.27;4.80;;;;;;;8.41;53.06;99964.66;5055016;28;20199;-87
2022/03/27 05:20:51;;;;;;;9.47;4.87;;;;;;;8.60;53.43;99967.56;5055287;28;20525;-87
2022/03/27 05:23:16;;;;;;;16.40;5.53;;;;;;;8.99;52.71;99960.19;5037366;28;20623;-87
2022/03/27 05:25:45;;;;;;;6.70;4.00;;;;;;;9.49;51.84;99961.97;5054861;28;20173;-87
2022/03/27 05:28:12;;;;;;;8.30;4.57;;;;;;;9.87;51.48;99966.69;5037286;28;20173;-88
2022/03/27 05:30:38;;;;;;;15.60;7.30;;;;;;;10.20;49.13;99955.91;5037232;28;20182;-88
2022/03/27 05:33:04;;;;;;;36.67;12.60;;;;;;;10.78;47.46;99950.09;5054554;28;20206;-88
2022/03/27 05:35:30;;;;;;;25.60;10.57;;;;;;;11.19;46.47;99945.75;5037458;28;20196;-88
2022/03/27 05:37:56;;;;;;;19.00;8.43;;;;;;;11.54;45.24;99952.13;5037334;28;20182;-88
2022/03/27 05:40:22;;;;;;;18.43;8.30;;;;;;;12.04;44.72;99947.28;5037294;28;20173;-88
2022/03/27 05:42:49;;;;;;;19.27;7.13;;;;;;;13.03;42.56;99946.00;5054354;28;20189;-89
2022/03/27 05:45:15;;;;;;;21.50;8.17;;;;;;;13.87;41.35;99936.38;5036887;28;20541;-89
2022/03/27 05:47:44;;;;;;;16.37;7.43;;;;;;;14.06;39.94;99941.50;5054404;28;20188;-89
2022/03/27 05:50:12;;;;;;;17.90;7.97;;;;;;;14.37;40.22;99935.44;5054430;28;20243;-89
2022/03/27 05:52:38;;;;;;;21.63;8.93;;;;;;;14.66;40.05;99926.75;5054258;28;22134;-89
2022/03/27 05:55:04;;;;;;;16.23;7.03;;;;;;;14.90;38.73;99933.28;5036722;28;20616;-89
2022/03/27 05:57:30;;;;;;;18.13;6.67;;;;;;;15.12;38.69;99938.19;5054245;28;20237;-90
2022/03/27 05:59:56;;;;;;;18.53;6.83;;;;;;;15.48;38.37;99943.09;5054219;28;20174;-89
2022/03/27 06:02:21;;;;;;;16.43;8.10;;;;;;;15.65;37.71;99942.94;5036613;28;20177;-89
2022/03/27 06:04:46;;;;;;;16.70;7.20;;;;;;;15.82;37.13;99948.91;5054070;28;20187;-89
2022/03/27 06:07:12;;;;;;;12.03;6.20;;;;;;;16.10;37.04;99945.41;5054118;28;20772;-89
2022/03/27 06:09:37;;;;;;;16.77;7.90;;;;;;;16.51;36.73;99942.78;5054086;28;20173;-88
2022/03/27 06:12:04;;;;;;;16.10;7.07;;;;;;;16.77;35.29;99954.38;5054549;28;20181;-89
2022/03/27 06:14:30;;;;;;;20.50;6.83;;;;;;;16.87;36.07;99955.50;5036617;28;20201;-90
2022/03/27 06:16:56;;;;;;;25.67;8.83;;;;;;;17.06;35.72;99948.88;5054436;28;20200;-90
2022/03/27 06:19:22;;;;;;;17.17;6.50;;;;;;;17.38;35.34;99952.00;5054449;28;20174;-90
2022/03/27 06:21:47;;;;;;;12.83;6.43;;;;;;;17.70;34.32;99963.97;5053818;28;20177;-90
2022/03/27 06:24:13;;;;;;;20.63;7.77;;;;;;;18.15;33.87;99954.63;5036649;28;20184;-89
2022/03/27 06:26:40;;;;;;;14.80;6.63;;;;;;;18.78;32.71;99957.16;5053791;28;20186;-89
2022/03/27 06:29:09;;;;;;;13.37;4.70;;;;;;;19.39;31.01;99953.44;5054176;28;20184;-90
2022/03/27 06:31:40;;;;;;;12.27;4.90;;;;;;;20.21;30.11;99949.69;5053896;28;20204;-90
2022/03/27 06:34:06;;;;;;;14.70;4.43;;;;;;;20.53;29.23;99936.50;5054052;28;20264;-90
2022/03/27 06:36:35;;;;;;;11.70;5.17;;;;;;;21.25;29.20;99938.47;5036866;28;20663;-90
2022/03/27 06:39:02;;;;;;;16.60;6.40;;;;;;;21.88;27.40;99947.38;5053565;28;20174;-90
2022/03/27 06:41:28;;;;;;;12.30;6.03;;;;;;;22.78;27.35;99937.56;5036307;28;20659;-91
2022/03/27 06:43:53;;;;;;;13.47;5.50;;;;;;;23.52;26.00;99939.59;5035997;28;20269;-92
2022/03/27 06:46:19;;;;;;;7.17;3.53;;;;;;;24.04;24.22;99931.97;5053031;28;20181;-92
2022/03/27 06:48:45;;;;;;;9.67;3.73;;;;;;;24.09;23.99;99937.75;5053437;28;20204;-91
2022/03/27 06:51:45;;;;;;;8.43;3.20;;;;;;;23.86;23.78;99931.91;5035917;28;20177;-92
2022/03/27 06:58:23;;;;;;;8.53;3.07;;;;;;;24.81;22.87;99924.44;5053658;28;20177;-93
2022/03/27 07:03:51;;;;;;;9.47;3.20;;;;;;;23.11;23.51;99934.53;4973696;28;20235;-93
2022/03/27 07:10:12;;;;;;;7.77;2.53;;;;;;;23.72;24.38;99935.03;4973448;28;20183;-93
2022/03/27 07:17:17;;;;;;;6.07;2.93;;;;;;;23.13;24.02;99944.09;4877196;29;20257;-93
2022/03/27 07:33:27;;;;;;;6.90;2.47;;;;;;;21.97;26.28;99951.88;4887557;29;20289;-92
2022/03/27 07:36:08;;;;;;;;;;;;;;;;;;;;;
2022/03/27 07:38:37;;;;;;;4.90;2.80;;;;;;;22.15;25.91;99944.94;4974789;28;20213;-93
2022/03/27 07:41:08;;;;;;;4.73;1.90;;;;;;;22.12;25.92;99939.88;5035739;28;20201;-90
2022/03/27 07:50:38;;;;;;;7.50;2.63;;;;;;;21.65;26.66;99943.09;4992633;28;20190;-92
2022/03/27 07:53:27;;;;;;;10.60;2.63;;;;;;;21.04;26.83;99934.88;4975948;28;20211;-91
2022/03/27 07:55:59;;;;;;;13.13;3.03;;;;;;;20.71;26.91;99932.34;4994252;28;20223;-92
2022/03/27 07:58:24;;;;;;;6.77;3.10;;;;;;;20.96;27.94;99937.38;5017958;28;20174;-91
2022/03/27 08:01:05;;;;;;;;;;;;;;;;;;;;;
2022/03/27 08:04:06;;;;;;;10.77;2.90;;;;;;;20.55;27.42;99931.88;5037053;28;20520;-91
2022/03/27 08:06:36;;;;;;;5.00;2.40;;;;;;;20.82;27.80;99932.31;4956788;29;20197;-93
2022/03/27 08:09:29;;;;;;;11.40;3.13;;;;;;;21.11;27.36;99925.44;5034574;28;20196;-92
2022/03/27 08:11:58;;;;;;;10.77;2.53;;;;;;;21.02;27.25;99930.66;5020396;28;20272;-94
2022/03/27 08:24:26;;;;;;;3.93;2.00;;;;;;;20.95;27.27;99913.47;4861079;29;20218;-93
2022/03/27 08:27:08;;;;;;;;;;;;;;;;;;;;;
2022/03/27 08:33:41;;;;;;;;;;;;;;;;;;;;;
2022/03/27 08:39:58;;;;;;;7.60;2.83;;;;;;;21.57;27.17;99900.22;4917534;29;20633;-91
2022/03/27 08:42:26;;;;;;;5.60;1.90;;;;;;;21.57;26.53;99892.19;4895658;29;20229;-90
2022/03/27 08:44:54;;;;;;;4.37;1.87;;;;;;;21.78;24.71;99895.69;4949952;28;20577;-91
2022/03/27 08:48:03;;;;;;;7.87;2.20;;;;;;;21.60;25.17;99891.94;5035787;28;20213;-94
2022/03/27 08:50:58;;;;;;;6.17;2.07;;;;;;;21.63;23.87;99897.88;4993698;28;20188;-93
2022/03/27 08:53:32;;;;;;;6.57;2.60;;;;;;;21.51;24.21;99892.75;5038577;28;20263;-89
2022/03/27 09:00:13;;;;;;;4.57;2.10;;;;;;;22.19;23.10;99866.25;5056596;28;20239;-94
2022/03/27 09:03:21;;;;;;;5.27;2.33;;;;;;;22.11;23.26;99883.94;5056692;28;20543;-95
2022/03/27 09:06:11;;;;;;;5.30;2.20;;;;;;;22.14;23.01;99881.84;5039935;28;20185;-93
2022/03/27 09:12:27;;;;;;;8.20;2.33;;;;;;;22.01;21.20;99878.56;4975873;28;20199;-88
2022/03/27 09:18:20;;;;;;;9.83;2.43;;;;;;;22.03;21.70;99892.63;5044406;28;20323;-94
2022/03/27 09:31:54;;;;;;;6.53;2.57;;;;;;;23.14;20.95;99881.56;4887949;29;20361;-93
2022/03/27 09:45:48;;;;;;;5.43;2.47;;;;;;;23.14;20.38;99873.53;4860985;29;20671;-91
2022/03/27 09:52:28;;;;;;;5.33;2.37;;;;;;;23.92;19.67;99872.41;4872424;29;20628;-92
2022/03/27 10:01:48;;;;;;;6.53;2.90;;;;;;;23.78;20.05;99852.31;4979314;28;20543;-93
2022/03/27 10:05:29;;;;;;;5.10;2.60;;;;;;;23.53;19.10;99857.47;5014503;28;20164;-94
2022/03/27 10:08:23;;;;;;;6.43;2.17;;;;;;;23.56;20.90;99857.16;4917095;29;20233;-94
2022/03/27 10:11:29;;;;;;;8.33;3.13;;;;;;;23.81;20.08;99865.41;4912826;29;20185;-93
2022/03/27 10:14:39;;;;;;;11.97;2.83;;;;;;;23.89;19.60;99845.06;5014681;28;20294;-93
2022/03/27 10:18:09;;;;;;;4.73;2.40;;;;;;;24.08;19.77;99835.13;5013843;28;20675;-95
2022/03/27 10:41:54;;;;;;;;;;;;;;;;;;;;;
2022/03/27 10:48:45;;;;;;;;;;;;;;;;;;;;;
2022/03/27 10:51:37;;;;;;;7.87;3.50;;;;;;;24.92;18.84;99836.53;4993816;28;20175;-95
2022/03/27 10:58:24;;;;;;;5.53;2.43;;;;;;;25.00;19.54;99820.50;4954336;29;20236;-93
2022/03/27 11:25:34;;;;;;;9.77;2.57;;;;;;;26.21;17.08;99774.72;4863560;29;20203;-94
2022/03/27 12:08:49;;;;;;;4.37;1.97;;;;;;;25.89;15.50;99728.94;4919642;29;20199;-93
2022/03/27 12:18:44;;;;;;;;;;;;;;;;;;;;;
2022/03/27 12:25:29;;;;;;;11.87;2.43;;;;;;;25.70;15.88;99700.50;4723477;30;20322;-93
2022/03/27 12:32:11;;;;;;;10.47;2.80;;;;;;;25.86;15.34;99699.72;4739339;30;20242;-93
2022/03/27 12:45:22;;;;;;;5.07;2.13;;;;;;;26.36;15.27;99689.75;4771171;30;20184;-94
2022/03/27 12:48:32;;;;;;;7.13;2.40;;;;;;;26.21;16.34;99691.38;4774667;30;20181;-94
2022/03/27 12:57:39;;;;;;;4.57;2.13;;;;;;;26.18;15.50;99675.59;4825674;29;20194;-94
2022/03/27 13:00:25;;;;;;;;;;;;;;;;;;;;;
2022/03/27 13:06:13;;;;;;;8.47;2.33;;;;;;;25.98;15.57;99663.44;4882620;29;20584;-94
2022/03/27 13:08:45;;;;;;;5.90;2.07;;;;;;;25.36;15.84;99664.78;4907115;29;20189;-94
2022/03/27 13:11:21;;;;;;;8.30;1.93;;;;;;;25.95;16.47;99670.00;4990848;28;20218;-93
2022/03/27 13:14:05;;;;;;;4.77;1.57;;;;;;;25.70;15.70;99670.97;5038962;28;20643;-93
2022/03/27 13:16:51;;;;;;;6.03;2.17;;;;;;;25.38;15.72;99670.81;5019050;28;20189;-95
2022/03/27 13:30:22;;;;;;;4.23;2.07;;;;;;;26.75;15.66;99649.53;4887962;29;20604;-93
2022/03/27 13:33:17;;;;;;;5.60;1.83;;;;;;;26.58;15.66;99651.41;4925819;29;20663;-94
2022/03/27 13:35:48;;;;;;;5.57;2.57;;;;;;;26.68;15.17;99653.91;4902899;29;20225;-95
2022/03/27 13:39:06;;;;;;;8.80;2.27;;;;;;;26.54;15.03;99644.69;4891086;29;20262;-95
2022/03/27 13:44:35;;;;;;;4.23;1.67;;;;;;;25.94;14.82;99648.69;4940856;29;20229;-94
2022/03/27 13:47:02;;;;;;;6.33;2.10;;;;;;;25.75;15.08;99651.66;4993936;28;20190;-93
2022/03/27 13:50:05;;;;;;;5.93;2.23;;;;;;;26.02;15.67;99643.31;5024377;28;20197;-94
2022/03/27 13:53:01;;;;;;;5.33;2.20;;;;;;;26.10;16.13;99641.47;5021955;28;20193;-92
2022/03/27 13:56:31;;;;;;;;;;;;;;;;;;;;;
2022/03/27 14:02:12;;;;;;;4.90;1.80;;;;;;;25.80;15.00;99635.88;4939400;29;20198;-93
2022/03/27 14:04:53;;;;;;;6.43;2.60;;;;;;;26.02;16.54;99638.75;4938249;29;20193;-93
2022/03/27 14:08:06;;;;;;;9.77;3.80;;;;;;;25.86;15.70;99643.28;4938487;28;20194;-93
2022/03/27 14:11:01;;;;;;;6.20;2.60;;;;;;;26.40;15.79;99641.84;4918485;29;20186;-94
2022/03/27 14:13:39;;;;;;;;;;;;;;;;;;;;;
2022/03/27 14:23:10;;;;;;;7.07;1.87;;;;;;;26.01;16.42;99631.72;4857899;29;20240;-95
2022/03/27 14:25:36;;;;;;;4.63;1.90;;;;;;;25.98;15.09;99632.06;4917816;29;20202;-92
2022/03/27 14:28:04;;;;;;;3.40;1.57;;;;;;;25.85;15.47;99628.19;4930634;29;20190;-94
2022/03/27 14:31:08;;;;;;;4.63;2.00;;;;;;;26.04;15.84;99636.78;4937562;29;20253;-95
2022/03/27 14:33:33;;;;;;;7.47;2.50;;;;;;;25.93;15.23;99634.41;5005218;28;20221;-92
2022/03/27 14:36:25;;;;;;;4.80;2.80;;;;;;;26.26;15.80;99637.16;5017626;28;20185;-95
2022/03/27 14:46:59;;;;;;;6.17;2.00;;;;;;;26.43;15.72;99631.59;4970708;28;20197;-94
2022/03/27 14:56:35;;;;;;;8.10;2.33;;;;;;;26.59;15.99;99628.03;4991390;28;20225;-95
2022/03/27 14:59:06;;;;;;;7.57;2.27;;;;;;;26.56;15.99;99631.06;4979393;28;20196;-95
2022/03/27 15:02:01;;;;;;;7.93;2.50;;;;;;;26.52;15.70;99635.13;4977126;28;20529;-95
2022/03/27 15:04:55;;;;;;;9.37;2.93;;;;;;;26.09;16.23;99629.06;5008210;28;20270;-96
2022/03/27 15:08:10;;;;;;;10.77;2.90;;;;;;;26.29;16.39;99637.63;5032409;28;20196;-93
2022/03/27 15:11:15;;;;;;;;;;;;;;;;;;;;;
2022/03/27 15:14:37;;;;;;;;;;;;;;;;;;;;;
2022/03/27 15:40:45;;;;;;;12.87;3.27;;;;;;;26.27;18.02;99641.50;4775499;29;20215;-95
2022/03/27 17:33:44;;;;;;;13.03;3.93;;;;;;;20.89;24.08;99756.75;5527849;23;20759;-93
2022/03/27 17:55:08;;;;;;;;;;;;;;;;;;;;;
2022/03/27 18:02:17;;;;;;;;;;;;;;;;;;;;;
2022/03/27 18:39:25;;;;;;;;;;;;;;;;;;;;;
2022/03/27 18:48:53;;;;;;;;;;;;;;;;;;;;;
2022/03/27 18:51:34;;;;;;;;;;;;;;;;;;;;;
2022/03/27 18:54:07;;;;;;;18.63;9.10;;;;;;;18.60;29.63;99844.31;6165250;23;20223;-93
2022/03/27 18:56:53;;;;;;;;;;;;;;;;;;;;;
2022/03/27 18:59:58;;;;;;;25.43;7.57;;;;;;;18.77;29.52;99838.56;6165108;23;20227;-94
2022/03/27 19:02:54;;;;;;;;;;;;;;;;;;;;;
2022/03/27 19:08:46;;;;;;;16.23;7.03;;;;;;;18.09;31.09;99850.72;6138730;23;20177;-94
2022/03/27 19:11:19;;;;;;;16.17;7.00;;;;;;;17.86;31.78;99856.81;6139919;23;20154;-93
2022/03/27 19:13:52;;;;;;;14.60;7.00;;;;;;;17.79;31.88;99854.59;6138830;23;20221;-94
2022/03/27 19:16:33;;;;;;;;;;;;;;;;;;;;;
2022/03/27 19:19:16;;;;;;;;;;;;;;;;;;;;;
2022/03/27 19:22:10;;;;;;;19.57;8.37;;;;;;;17.74;32.79;99863.84;6164533;23;20221;-94
2022/03/27 19:24:40;;;;;;;15.77;7.97;;;;;;;17.83;32.61;99865.84;6138426;23;20567;-91
2022/03/27 19:27:06;;;;;;;23.77;9.47;;;;;;;17.77;33.00;99867.13;6136289;23;20198;-90
2022/03/27 19:29:41;;;;;;;15.40;7.53;;;;;;;17.93;32.80;99871.31;6157021;23;20491;-89
2022/03/27 19:32:19;;;;;;;;;;;;;;;;;;;;;
2022/03/27 19:34:47;;;;;;;18.00;6.37;;;;;;;17.50;34.43;99887.59;6157398;23;20209;-89
2022/03/27 19:37:21;;;;;;;15.83;5.67;;;;;;;17.47;34.34;99895.75;6126086;23;20200;-90
2022/03/27 19:39:47;;;;;;;16.40;6.83;;;;;;;17.46;34.40;99894.03;6151435;23;20183;-89
2022/03/27 19:42:24;;;;;;;17.13;6.87;;;;;;;17.41;34.50;99895.31;6127849;23;20149;-90
2022/03/27 19:44:59;;;;;;;18.43;7.43;;;;;;;17.45;34.57;99902.94;6126647;23;20259;-90
2022/03/27 19:47:30;;;;;;;14.93;6.33;;;;;;;17.46;34.82;99906.44;6150752;23;20569;-90
2022/03/27 19:49:55;;;;;;;13.87;6.57;;;;;;;17.47;34.80;99897.53;6126277;23;20155;-89
2022/03/27 19:52:27;;;;;;;14.90;7.03;;;;;;;17.37;34.91;99902.63;6127983;23;20154;-90
2022/03/27 19:54:53;;;;;;;12.97;7.17;;;;;;;17.24;35.24;99898.25;6126600;23;20154;-90
2022/03/27 19:57:21;;;;;;;21.67;8.07;;;;;;;17.08;35.92;99903.75;6126155;23;20225;-90
2022/03/27 19:59:52;;;;;;;22.70;8.23;;;;;;;17.00;35.86;99911.34;6127267;23;20245;-90
2022/03/27 20:02:18;;;;;;;27.83;9.70;;;;;;;17.01;35.62;99916.53;6127596;23;20217;-89
2022/03/27 20:04:53;;;;;;;18.07;8.33;;;;;;;17.04;35.45;99918.13;6128273;23;20151;-90
2022/03/27 20:07:20;;;;;;;27.87;10.40;;;;;;;17.04;35.63;99911.03;6126057;23;20190;-89
2022/03/27 20:09:46;;;;;;;32.37;9.33;;;;;;;17.07;35.56;99920.59;6127602;23;20154;-89
2022/03/27 20:12:12;;;;;;;19.17;8.83;;;;;;;17.06;35.69;99926.81;6127601;23;20613;-89
2022/03/27 20:14:37;;;;;;;23.87;9.43;;;;;;;16.84;36.37;99932.69;6126020;23;20163;-89
2022/03/27 20:17:04;;;;;;;13.77;7.60;;;;;;;16.48;36.99;99938.53;6127183;23;20159;-89
2022/03/27 20:19:31;;;;;;;10.63;4.77;;;;;;;16.35;37.29;99939.44;6125928;23;20578;-89
2022/03/27 20:21:57;;;;;;;11.00;4.63;;;;;;;16.46;37.01;99953.66;6127457;23;20149;-90
2022/03/27 20:24:22;;;;;;;10.67;4.03;;;;;;;16.38;37.27;99957.72;6127107;23;20162;-89
2022/03/27 20:26:51;;;;;;;11.50;4.20;;;;;;;16.44;37.22;99952.06;6127319;23;20592;-90
2022/03/27 20:29:24;;;;;;;9.67;4.20;;;;;;;16.48;37.22;99965.00;6127303;23;20152;-90
2022/03/27 20:31:49;;;;;;;10.23;3.93;;;;;;;16.42;37.09;99968.06;6127282;23;20153;-89
2022/03/27 20:34:15;;;;;;;8.67;3.40;;;;;;;16.32;36.84;99977.53;6150396;23;20178;-90
2022/03/27 20:36:41;;;;;;;7.00;3.63;;;;;;;16.34;36.48;99983.56;6136267;23;20508;-89